Terminal Aerodrome Forecast
Issued by NWS

Home | Current Version | Previous Version | Graphics & Text | Print | Product List | Glossary On
Versions: 1 2 3 4 5 6 7 8 9 10 11 12 13 14 15 16 17 18
899
FTUS43 KBIS 080521
TAFMOT
TAF
KMOT 080521Z 0806/0906 33025G35KT P6SM SCT040
     FM080800 33026G37KT P6SM BKN050
     FM081100 32020G28KT P6SM BKN050
     FM082300 31012KT P6SM BKN200
     FM090200 31008KT P6SM BKN070=

USA.gov is the U.S. government's official web portal to all federal, state and local government web resources and services.